Time;durP1;ratioP1;P1;durP2;ratioP2;P2;SDS_P1;SDS_P2;PMS_P1;PMS_P2;Temp;Humidity;BMP_temperature;BMP_pressure;BME280_temperature;BME280_humidity;BME280_pressure;Samples;Min_cycle;Max_cycle;Signal;HPM_P1;HPM_P2
2023/03/20 00:00:59;;;;;;;22.23;18.67;;;13.40;96.70;;;;;;5034722;28;20044;-71
2023/03/20 00:03:27;;;;;;;23.17;18.83;;;13.40;96.70;;;;;;5038532;28;20115;-71
2023/03/20 00:05:55;;;;;;;20.35;18.25;;;13.50;96.70;;;;;;5037558;28;20048;-71
2023/03/20 00:08:24;;;;;;;21.92;19.65;;;13.50;96.70;;;;;;5030634;28;20520;-71
2023/03/20 00:10:56;;;;;;;21.45;19.13;;;13.50;96.70;;;;;;5026678;28;20072;-72
2023/03/20 00:13:27;;;;;;;21.25;19.05;;;13.50;96.70;;;;;;5033844;28;20999;-71
2023/03/20 00:15:56;;;;;;;22.13;18.80;;;13.50;96.70;;;;;;5026629;28;20118;-71
2023/03/20 00:18:25;;;;;;;20.42;18.25;;;13.50;96.70;;;;;;5036015;28;20685;-71
2023/03/20 00:20:53;;;;;;;21.23;18.00;;;13.50;96.70;;;;;;5032099;28;20049;-71
2023/03/20 00:23:21;;;;;;;20.27;18.02;;;13.50;96.70;;;;;;5039690;28;20059;-72
2023/03/20 00:25:50;;;;;;;20.05;17.92;;;13.50;96.70;;;;;;5057715;28;20525;-71
2023/03/20 00:28:39;;;;;;;20.27;17.92;;;13.40;96.70;;;;;;5052764;28;20044;-72
2023/03/20 00:31:19;;;;;;;20.20;18.13;;;13.40;96.70;;;;;;5057599;28;20048;-71
2023/03/20 00:33:48;;;;;;;21.58;18.30;;;13.50;96.70;;;;;;5057970;28;20123;-71
2023/03/20 00:36:17;;;;;;;19.38;17.30;;;13.40;96.70;;;;;;5061564;28;20150;-71
2023/03/20 00:38:45;;;;;;;20.08;17.98;;;13.50;96.70;;;;;;5054273;28;20037;-72
2023/03/20 00:41:26;;;;;;;22.67;19.25;;;13.40;96.70;;;;;;5060212;28;20040;-71
2023/03/20 00:43:58;;;;;;;19.77;17.77;;;13.50;96.70;;;;;;5062511;28;20044;-71
2023/03/20 00:46:28;;;;;;;21.40;19.20;;;13.40;96.70;;;;;;5058435;28;20051;-71
2023/03/20 00:48:56;;;;;;;22.42;19.45;;;13.40;96.70;;;;;;5065077;28;20047;-72
2023/03/20 00:51:24;;;;;;;21.42;19.20;;;13.40;96.70;;;;;;5046828;28;20037;-71
2023/03/20 00:53:52;;;;;;;23.92;19.05;;;13.40;96.70;;;;;;5043128;28;20132;-72
2023/03/20 00:56:40;;;;;;;19.80;17.80;;;13.40;96.70;;;;;;5033157;28;20045;-71
2023/03/20 00:59:17;;;;;;;20.52;18.27;;;13.40;96.70;;;;;;5060163;28;20040;-71
2023/03/20 01:01:46;;;;;;;20.98;18.75;;;13.40;96.70;;;;;;5045576;28;20048;-71
2023/03/20 01:04:16;;;;;;;21.02;18.70;;;13.40;96.70;;;;;;5048519;28;20088;-71
2023/03/20 01:06:45;;;;;;;19.85;17.77;;;13.40;96.70;;;;;;5055229;28;20127;-72
2023/03/20 01:09:13;;;;;;;20.23;18.13;;;13.40;96.70;;;;;;5038295;28;20036;-72
2023/03/20 01:11:42;;;;;;;20.05;17.95;;;13.40;96.70;;;;;;5051844;28;20071;-73
2023/03/20 01:14:14;;;;;;;22.77;20.00;;;13.40;96.70;;;;;;5061857;28;20328;-71
2023/03/20 01:16:42;;;;;;;21.67;19.30;;;13.40;96.70;;;;;;5058124;28;20047;-72
2023/03/20 01:19:13;;;;;;;21.65;18.55;;;13.40;96.70;;;;;;5065534;28;20055;-72
2023/03/20 01:21:41;;;;;;;18.27;15.50;;;13.40;96.70;;;;;;5042030;28;20051;-72
2023/03/20 01:24:09;;;;;;;15.88;13.98;;;13.30;96.70;;;;;;5062332;28;20497;-72
2023/03/20 01:26:38;;;;;;;11.88;10.48;;;13.30;96.70;;;;;;5053741;28;20769;-71
2023/03/20 01:29:16;;;;;;;12.43;11.13;;;13.20;96.70;;;;;;5051700;28;20745;-71
2023/03/20 01:31:45;;;;;;;11.32;10.13;;;13.20;96.70;;;;;;5052032;28;21619;-71
2023/03/20 01:34:15;;;;;;;10.38;8.82;;;13.20;96.70;;;;;;5051842;28;20432;-71
2023/03/20 01:36:47;;;;;;;10.13;7.97;;;13.30;96.70;;;;;;5052037;28;20072;-70
2023/03/20 01:39:16;;;;;;;9.00;7.68;;;13.30;96.70;;;;;;5046001;28;20066;-71
2023/03/20 01:41:46;;;;;;;9.45;8.40;;;13.30;96.70;;;;;;5049604;28;20048;-71
2023/03/20 01:44:21;;;;;;;8.35;7.55;;;13.30;96.70;;;;;;5056410;28;20702;-72
2023/03/20 01:46:54;;;;;;;11.30;8.30;;;13.30;96.70;;;;;;5051419;28;20040;-71
2023/03/20 01:49:59;;;;;;;10.43;8.55;;;13.30;96.70;;;;;;5050212;28;20133;-71
2023/03/20 01:52:27;;;;;;;9.07;7.85;;;13.30;96.70;;;;;;5054229;28;20052;-71
2023/03/20 01:54:55;;;;;;;9.13;7.63;;;13.30;96.70;;;;;;5071322;28;20494;-71
2023/03/20 01:57:24;;;;;;;8.27;7.30;;;13.30;96.70;;;;;;5051080;28;20051;-71
2023/03/20 02:00:01;;;;;;;8.85;6.93;;;13.30;96.70;;;;;;5038605;28;20050;-71
2023/03/20 02:02:43;;;;;;;9.30;7.07;;;13.30;96.70;;;;;;5055790;28;20044;-71
2023/03/20 02:05:19;;;;;;;8.68;7.03;;;13.20;96.70;;;;;;5042026;28;20162;-71
2023/03/20 02:07:56;;;;;;;8.77;7.70;;;13.20;96.70;;;;;;5065010;28;20134;-71
2023/03/20 02:10:24;;;;;;;8.00;7.20;;;13.20;96.70;;;;;;5052140;28;20054;-72
2023/03/20 02:13:01;;;;;;;8.80;7.23;;;13.20;96.70;;;;;;5044650;28;20621;-71
2023/03/20 02:18:31;;;;;;;9.18;7.90;;;13.20;96.70;;;;;;5116811;27;21186;-73
2023/03/20 02:21:25;;;;;;;9.55;8.48;;;13.20;96.70;;;;;;5107132;27;20044;-71
2023/03/20 02:24:31;;;;;;;11.13;9.35;;;13.20;96.70;;;;;;5092007;28;20048;-73
2023/03/20 02:27:10;;;;;;;8.85;7.40;;;13.20;96.70;;;;;;5084662;28;20282;-72
2023/03/20 02:30:13;;;;;;;9.75;8.57;;;13.20;96.70;;;;;;5090695;28;20079;-72
2023/03/20 02:33:14;;;;;;;9.90;8.90;;;13.20;96.70;;;;;;5094210;28;20130;-72
2023/03/20 02:36:32;;;;;;;12.48;9.93;;;13.20;96.70;;;;;;5096693;28;20135;-72
2023/03/20 02:39:22;;;;;;;11.02;9.85;;;13.20;96.70;;;;;;5087930;28;20044;-72
2023/03/20 02:41:56;;;;;;;10.95;9.85;;;13.20;96.70;;;;;;5097702;28;20112;-72
2023/03/20 02:44:33;;;;;;;12.73;10.35;;;13.20;96.70;;;;;;5079859;28;20101;-72
2023/03/20 02:47:07;;;;;;;11.05;9.77;;;13.20;96.70;;;;;;5099990;28;20047;-72
2023/03/20 02:49:51;;;;;;;9.45;8.48;;;13.10;96.70;;;;;;5098528;28;20081;-72
2023/03/20 02:52:25;;;;;;;10.88;9.70;;;13.10;96.70;;;;;;5089445;28;20751;-72
2023/03/20 02:55:00;;;;;;;10.95;9.63;;;13.10;96.70;;;;;;5094470;28;20500;-73
2023/03/20 02:57:40;;;;;;;9.27;8.38;;;13.10;96.70;;;;;;5113673;27;20619;-72
2023/03/20 03:00:13;;;;;;;9.88;8.45;;;13.10;96.70;;;;;;5088473;28;20060;-72
2023/03/20 03:02:47;;;;;;;9.80;8.80;;;13.10;96.70;;;;;;5086102;28;20043;-72
2023/03/20 03:05:23;;;;;;;9.77;8.68;;;13.10;96.70;;;;;;5097601;28;20498;-72
2023/03/20 03:07:55;;;;;;;10.40;8.45;;;13.00;96.70;;;;;;5098497;28;20054;-72
2023/03/20 03:10:29;;;;;;;8.82;7.93;;;13.00;96.70;;;;;;5087620;28;20055;-72
2023/03/20 03:12:59;;;;;;;9.63;8.32;;;13.00;96.70;;;;;;5082796;28;20560;-72
2023/03/20 03:15:31;;;;;;;8.07;7.28;;;13.00;96.70;;;;;;5094838;28;20055;-72
2023/03/20 03:18:01;;;;;;;10.27;7.65;;;13.00;96.70;;;;;;5090753;28;20048;-72
2023/03/20 03:20:32;;;;;;;8.18;7.35;;;13.00;96.70;;;;;;5101768;28;20055;-72
2023/03/20 03:23:00;;;;;;;8.45;7.50;;;13.00;96.70;;;;;;5094616;28;20058;-71
2023/03/20 03:25:33;;;;;;;7.82;7.07;;;13.00;96.70;;;;;;5095488;28;20489;-72
2023/03/20 03:28:05;;;;;;;8.40;7.20;;;13.00;96.70;;;;;;5087733;28;20075;-72
2023/03/20 03:30:37;;;;;;;8.65;7.47;;;13.00;96.70;;;;;;5083860;28;20040;-71
2023/03/20 03:33:14;;;;;;;7.20;6.00;;;12.90;96.70;;;;;;5081364;28;20048;-72
2023/03/20 03:35:42;;;;;;;;;;;12.90;96.70;;;;;;5075051;28;20134;-72
2023/03/20 03:38:26;;;;;;;6.32;5.72;;;12.90;96.70;;;;;;5076754;28;19924;-72
2023/03/20 03:41:10;;;;;;;6.20;5.60;;;12.90;96.70;;;;;;5097974;27;20039;-71
2023/03/20 03:43:44;;;;;;;6.82;6.05;;;12.90;96.70;;;;;;5075023;28;20048;-72
2023/03/20 03:46:18;;;;;;;6.20;5.57;;;12.90;96.70;;;;;;5082150;28;20138;-71
2023/03/20 03:48:50;;;;;;;5.78;5.25;;;13.00;96.70;;;;;;5075416;28;20059;-72
2023/03/20 03:51:23;;;;;;;5.75;5.25;;;12.90;96.70;;;;;;5081971;28;20444;-72
2023/03/20 03:54:08;;;;;;;5.28;4.78;;;12.90;96.70;;;;;;5083316;28;20035;-72
2023/03/20 03:56:40;;;;;;;6.07;4.45;;;13.00;96.70;;;;;;5081257;28;20048;-72
2023/03/20 03:59:14;;;;;;;5.78;4.47;;;13.00;96.70;;;;;;5084130;28;20608;-72
2023/03/20 04:01:43;;;;;;;4.10;3.70;;;13.00;96.70;;;;;;5079895;28;20043;-72
2023/03/20 04:04:14;;;;;;;4.28;3.90;;;13.00;96.70;;;;;;5086478;28;20044;-72
2023/03/20 04:06:42;;;;;;;4.97;4.18;;;13.00;96.70;;;;;;5083306;28;20044;-72
2023/03/20 04:09:09;;;;;;;4.63;3.85;;;13.00;96.70;;;;;;5072685;28;20040;-71
2023/03/20 04:11:39;;;;;;;4.95;3.92;;;13.00;96.70;;;;;;5069945;28;20051;-73
2023/03/20 04:14:07;;;;;;;4.30;3.90;;;13.00;96.70;;;;;;5074125;28;20131;-72
2023/03/20 04:16:35;;;;;;;4.25;3.80;;;13.00;96.70;;;;;;5080474;28;20048;-73
2023/03/20 04:19:04;;;;;;;4.85;4.35;;;13.00;96.70;;;;;;5076745;28;20079;-71
2023/03/20 04:21:31;;;;;;;7.55;3.88;;;13.00;96.70;;;;;;5081335;28;20148;-72
2023/03/20 04:23:59;;;;;;;5.18;4.35;;;13.00;96.70;;;;;;5073298;28;20044;-72
2023/03/20 04:26:27;;;;;;;4.50;4.10;;;12.90;96.70;;;;;;5080207;28;20047;-71
2023/03/20 04:28:57;;;;;;;4.40;4.00;;;12.90;96.70;;;;;;5075717;28;20802;-72
2023/03/20 04:31:47;;;;;;;4.57;4.10;;;12.90;96.70;;;;;;5080312;28;20577;-71
2023/03/20 04:34:21;;;;;;;4.40;4.00;;;13.00;96.70;;;;;;5082427;28;20040;-71
2023/03/20 04:37:09;;;;;;;4.90;4.00;;;13.00;96.70;;;;;;5079569;28;20059;-72
2023/03/20 04:39:58;;;;;;;5.45;4.05;;;13.00;96.70;;;;;;5077937;28;20040;-73
2023/03/20 04:42:26;;;;;;;4.00;3.40;;;13.00;96.70;;;;;;5082856;28;20051;-72
2023/03/20 04:45:01;;;;;;;4.15;3.75;;;13.00;96.70;;;;;;5071627;28;20044;-72
2023/03/20 04:47:30;;;;;;;4.40;4.00;;;13.00;96.70;;;;;;5098163;27;20048;-71
2023/03/20 04:49:58;;;;;;;6.32;4.18;;;13.00;96.70;;;;;;5076776;28;20044;-72
2023/03/20 04:52:25;;;;;;;4.72;3.70;;;13.00;96.70;;;;;;5074381;28;20171;-72
2023/03/20 04:54:53;;;;;;;4.38;3.70;;;13.00;96.70;;;;;;5092852;27;20068;-72
2023/03/20 04:57:21;;;;;;;4.90;4.03;;;13.00;96.70;;;;;;5070801;28;20057;-72
2023/03/20 04:59:49;;;;;;;5.55;3.80;;;13.00;96.70;;;;;;5079117;28;20712;-72
2023/03/20 05:02:19;;;;;;;6.32;4.03;;;12.90;96.70;;;;;;5069940;28;20036;-71
2023/03/20 05:04:47;;;;;;;4.28;3.88;;;12.90;96.70;;;;;;5070777;28;20040;-72
2023/03/20 05:07:15;;;;;;;5.45;3.72;;;12.90;96.70;;;;;;5082640;28;20043;-72
2023/03/20 05:09:54;;;;;;;5.70;4.03;;;12.90;96.70;;;;;;5076176;28;20541;-72
2023/03/20 05:12:23;;;;;;;5.13;3.67;;;12.90;96.70;;;;;;5090574;28;20460;-72
2023/03/20 05:15:10;;;;;;;5.38;3.45;;;12.90;96.70;;;;;;5063703;28;20044;-72
2023/03/20 05:17:57;;;;;;;6.63;3.72;;;12.90;96.70;;;;;;5078119;28;20132;-72
2023/03/20 05:20:37;;;;;;;4.78;4.18;;;12.80;96.70;;;;;;5088224;28;20097;-72
2023/03/20 05:23:41;;;;;;;5.95;4.18;;;12.80;96.70;;;;;;5029210;28;20048;-73
2023/03/20 05:26:44;;;;;;;4.97;4.03;;;12.80;96.70;;;;;;4986792;28;20045;-71
2023/03/20 05:29:17;;;;;;;4.55;3.83;;;12.80;96.70;;;;;;5063275;28;20415;-71
2023/03/20 05:32:08;;;;;;;5.38;4.05;;;12.80;96.70;;;;;;5055038;28;20067;-72
2023/03/20 05:35:00;;;;;;;6.03;4.07;;;12.80;96.70;;;;;;5059749;28;20532;-71
2023/03/20 05:37:42;;;;;;;5.82;4.65;;;12.70;96.70;;;;;;5078114;28;20044;-71
2023/03/20 05:40:24;;;;;;;4.38;3.92;;;12.70;96.70;;;;;;5070955;28;20189;-71
2023/03/20 05:43:17;;;;;;;5.43;3.92;;;12.70;96.70;;;;;;5079345;28;20051;-72
2023/03/20 05:46:05;;;;;;;5.18;4.07;;;12.70;96.70;;;;;;5076247;28;20054;-72
2023/03/20 05:48:44;;;;;;;5.97;4.63;;;12.70;96.70;;;;;;5056647;28;20577;-71
2023/03/20 05:51:20;;;;;;;5.35;4.13;;;12.70;96.70;;;;;;5069520;28;20055;-71
2023/03/20 05:54:06;;;;;;;5.00;4.35;;;12.80;96.70;;;;;;5079129;28;20081;-72
2023/03/20 05:56:58;;;;;;;5.05;4.38;;;12.80;96.70;;;;;;5068011;28;20055;-72
2023/03/20 05:59:43;;;;;;;5.05;4.30;;;12.80;96.70;;;;;;5079837;28;20048;-71
2023/03/20 06:02:14;;;;;;;6.13;5.10;;;12.80;96.70;;;;;;5079939;28;20054;-72
2023/03/20 06:04:49;;;;;;;4.82;4.22;;;12.80;96.70;;;;;;5073829;28;20072;-71
2023/03/20 06:07:42;;;;;;;5.00;4.50;;;12.80;96.70;;;;;;5073356;28;20521;-72
2023/03/20 06:10:14;;;;;;;4.68;4.28;;;12.80;96.70;;;;;;5077437;28;20047;-71
2023/03/20 06:12:42;;;;;;;5.45;4.95;;;12.80;96.70;;;;;;5053709;28;20527;-72
2023/03/20 06:15:11;;;;;;;5.55;4.65;;;12.80;96.70;;;;;;5078603;28;20076;-72
2023/03/20 06:17:44;;;;;;;5.25;4.63;;;12.80;96.70;;;;;;5069150;28;20683;-71
2023/03/20 06:20:14;;;;;;;5.07;4.55;;;12.90;96.70;;;;;;5059584;28;20056;-72
2023/03/20 06:22:45;;;;;;;5.55;4.70;;;12.90;96.70;;;;;;5079190;28;20378;-72
2023/03/20 06:25:15;;;;;;;5.00;4.60;;;12.90;96.70;;;;;;5066557;28;20040;-72
2023/03/20 06:27:45;;;;;;;5.65;4.97;;;12.90;96.70;;;;;;5076830;28;20089;-71
2023/03/20 06:30:15;;;;;;;6.47;5.43;;;12.90;96.70;;;;;;5070255;28;20602;-72
2023/03/20 06:32:45;;;;;;;6.03;5.45;;;12.90;96.70;;;;;;5056280;28;20089;-70
2023/03/20 06:35:13;;;;;;;6.95;5.75;;;12.90;96.70;;;;;;5080341;28;20773;-70
2023/03/20 06:37:47;;;;;;;6.22;5.60;;;12.90;96.70;;;;;;5077061;28;20048;-71
2023/03/20 06:40:21;;;;;;;7.47;5.93;;;12.90;96.70;;;;;;5071576;28;20040;-71
2023/03/20 06:42:49;;;;;;;6.88;5.40;;;13.00;96.70;;;;;;5094721;28;20040;-71
2023/03/20 06:45:18;;;;;;;6.10;5.50;;;13.00;96.70;;;;;;5076532;28;20417;-70
2023/03/20 06:48:00;;;;;;;7.53;5.13;;;13.00;96.70;;;;;;5071111;28;20047;-71
2023/03/20 06:50:45;;;;;;;5.95;5.32;;;13.00;96.70;;;;;;5069958;28;20070;-71
2023/03/20 06:53:18;;;;;;;5.68;5.18;;;13.10;96.70;;;;;;5076306;28;20040;-71
2023/03/20 06:56:08;;;;;;;6.63;5.13;;;13.10;96.70;;;;;;5078572;28;20100;-70
2023/03/20 06:58:39;;;;;;;5.97;5.38;;;13.20;96.70;;;;;;5082057;28;20044;-71
2023/03/20 07:01:12;;;;;;;7.18;6.20;;;13.20;96.70;;;;;;5072624;28;20043;-71
2023/03/20 07:03:40;;;;;;;7.90;6.32;;;13.20;96.70;;;;;;5079188;28;20044;-71
2023/03/20 07:06:10;;;;;;;7.65;6.07;;;13.30;96.70;;;;;;5062644;28;20498;-70
2023/03/20 07:08:41;;;;;;;7.10;6.28;;;13.30;96.70;;;;;;5077907;28;20467;-71
2023/03/20 07:11:09;;;;;;;6.15;5.55;;;13.30;96.70;;;;;;5077858;28;20513;-71
2023/03/20 07:13:37;;;;;;;6.35;5.57;;;13.40;96.70;;;;;;5069227;28;20076;-71
2023/03/20 07:16:16;;;;;;;5.88;5.28;;;13.50;96.70;;;;;;5073127;28;20415;-71
2023/03/20 07:18:46;;;;;;;7.97;5.22;;;13.50;96.70;;;;;;5072020;28;20565;-71
2023/03/20 07:21:18;;;;;;;5.15;4.63;;;13.60;96.70;;;;;;5083357;28;20085;-71
2023/03/20 07:23:48;;;;;;;4.70;4.03;;;13.60;96.70;;;;;;5082999;28;20044;-71
2023/03/20 07:26:16;;;;;;;4.78;4.28;;;13.60;96.70;;;;;;5081578;28;20097;-71
2023/03/20 07:28:45;;;;;;;5.72;3.88;;;13.70;96.70;;;;;;5075076;28;20044;-71
2023/03/20 07:31:23;;;;;;;5.70;3.80;;;13.70;96.70;;;;;;5080971;28;20044;-71
2023/03/20 07:34:00;;;;;;;5.10;3.50;;;13.80;96.70;;;;;;5080597;28;20044;-72
2023/03/20 07:36:29;;;;;;;4.38;3.17;;;13.80;96.70;;;;;;5081033;28;20052;-72
2023/03/20 07:38:59;;;;;;;3.53;3.05;;;13.80;96.70;;;;;;5074585;28;20048;-72
2023/03/20 07:41:29;;;;;;;4.80;3.30;;;13.90;96.70;;;;;;5085062;28;20043;-72
2023/03/20 07:44:09;;;;;;;3.70;3.38;;;13.90;96.70;;;;;;5074870;28;20155;-72
2023/03/20 07:46:47;;;;;;;3.85;3.47;;;14.00;96.70;;;;;;5080268;28;20117;-72
2023/03/20 07:49:19;;;;;;;3.08;2.78;;;14.10;96.70;;;;;;5072466;28;20054;-71
2023/03/20 07:51:48;;;;;;;2.65;2.40;;;14.20;96.70;;;;;;5082691;28;20036;-72
2023/03/20 07:54:17;;;;;;;3.25;2.80;;;14.20;96.70;;;;;;5080795;28;20064;-72
2023/03/20 07:56:45;;;;;;;2.60;2.35;;;14.30;96.70;;;;;;5082132;28;20093;-71
2023/03/20 07:59:13;;;;;;;4.55;3.25;;;14.40;96.70;;;;;;5081021;28;20036;-72
2023/03/20 08:01:41;;;;;;;3.38;2.50;;;14.50;96.70;;;;;;5081717;28;20126;-72
2023/03/20 08:04:10;;;;;;;3.78;2.20;;;14.50;96.70;;;;;;5098488;28;20132;-72
2023/03/20 08:06:42;;;;;;;4.22;2.70;;;14.50;96.70;;;;;;5075306;28;20047;-72
2023/03/20 08:09:10;;;;;;;4.85;2.17;;;14.50;96.70;;;;;;5076421;28;20574;-71
2023/03/20 08:11:40;;;;;;;2.47;1.92;;;14.50;96.70;;;;;;5077687;28;20047;-72
2023/03/20 08:14:09;;;;;;;2.28;1.67;;;14.50;96.70;;;;;;5074281;28;20037;-71
2023/03/20 08:16:37;;;;;;;3.08;1.85;;;14.60;96.70;;;;;;5082798;28;20612;-73
2023/03/20 08:19:05;;;;;;;2.30;1.75;;;14.70;96.70;;;;;;5084360;28;20044;-73
2023/03/20 08:21:33;;;;;;;3.03;1.77;;;14.70;96.70;;;;;;5081099;28;20173;-72
2023/03/20 08:24:01;;;;;;;1.30;1.10;;;14.80;96.70;;;;;;5082934;28;20047;-72
2023/03/20 08:26:29;;;;;;;2.60;1.02;;;14.90;96.70;;;;;;5083177;28;20581;-71
2023/03/20 08:28:59;;;;;;;1.40;0.73;;;15.00;96.70;;;;;;5081890;28;20040;-72
2023/03/20 08:31:27;;;;;;;0.90;0.52;;;15.00;96.70;;;;;;5082519;28;20044;-71
2023/03/20 08:33:56;;;;;;;1.30;0.80;;;15.00;96.70;;;;;;5082416;28;20043;-72
2023/03/20 08:36:24;;;;;;;1.38;0.60;;;15.20;96.70;;;;;;5083668;28;20108;-71
2023/03/20 08:38:52;;;;;;;1.05;0.60;;;15.30;96.70;;;;;;5081453;28;20048;-71
2023/03/20 08:41:27;;;;;;;1.40;0.60;;;15.50;96.70;;;;;;5083940;28;20071;-72
2023/03/20 08:43:55;;;;;;;0.95;0.57;;;15.50;96.70;;;;;;5065563;28;20070;-71
2023/03/20 08:46:24;;;;;;;1.50;0.70;;;15.50;96.70;;;;;;5083258;28;20036;-71
2023/03/20 08:48:52;;;;;;;1.88;0.60;;;15.60;96.70;;;;;;5084068;28;20040;-72
2023/03/20 08:51:21;;;;;;;0.32;0.22;;;15.70;96.70;;;;;;5079828;28;20040;-71
2023/03/20 08:53:49;;;;;;;1.23;0.50;;;15.70;96.70;;;;;;5072201;28;20097;-72
2023/03/20 08:56:17;;;;;;;0.77;0.60;;;15.70;96.70;;;;;;5082276;28;20093;-72
2023/03/20 08:58:45;;;;;;;0.95;0.30;;;15.80;96.70;;;;;;5081699;28;20560;-72
2023/03/20 09:01:14;;;;;;;0.60;0.30;;;15.90;96.70;;;;;;5084076;28;20116;-73
2023/03/20 09:03:44;;;;;;;0.63;0.30;;;15.90;96.70;;;;;;5082594;28;20391;-73
2023/03/20 09:06:12;;;;;;;1.20;0.40;;;16.00;96.70;;;;;;5082952;28;20853;-71
2023/03/20 09:08:40;;;;;;;0.50;0.32;;;16.20;96.70;;;;;;5086479;28;20112;-71
2023/03/20 09:11:08;;;;;;;1.02;0.52;;;16.20;96.70;;;;;;5093431;28;20031;-72
2023/03/20 09:13:36;;;;;;;0.77;0.30;;;16.30;96.70;;;;;;5086539;27;20039;-73
2023/03/20 09:16:05;;;;;;;1.17;0.40;;;16.30;96.70;;;;;;5086184;28;20044;-72
2023/03/20 09:18:33;;;;;;;1.15;0.55;;;16.40;96.70;;;;;;5089819;28;21580;-71
2023/03/20 09:21:03;;;;;;;2.47;0.50;;;16.50;96.70;;;;;;5081191;28;20040;-71
2023/03/20 09:23:31;;;;;;;1.13;0.20;;;16.60;96.70;;;;;;5082746;28;20044;-72
2023/03/20 09:25:59;;;;;;;0.30;0.20;;;16.70;96.70;;;;;;5089119;28;20048;-72
2023/03/20 09:28:27;;;;;;;0.82;0.20;;;16.60;96.70;;;;;;5094838;28;20067;-71
2023/03/20 09:30:56;;;;;;;0.73;0.28;;;16.30;96.70;;;;;;5083194;28;20450;-72
2023/03/20 09:33:24;;;;;;;0.77;0.30;;;16.30;96.70;;;;;;5083486;28;20056;-71
2023/03/20 09:35:52;;;;;;;0.95;0.30;;;16.30;96.70;;;;;;5097436;28;20047;-71
2023/03/20 09:38:23;;;;;;;0.75;0.20;;;16.40;96.70;;;;;;5097632;27;20075;-71
2023/03/20 09:40:53;;;;;;;0.55;0.30;;;16.30;96.70;;;;;;5103387;27;20135;-71
2023/03/20 09:43:35;;;;;;;0.70;0.40;;;16.30;96.70;;;;;;5090257;28;20040;-71
2023/03/20 09:46:16;;;;;;;1.08;0.57;;;16.40;96.70;;;;;;5077994;28;20497;-71
2023/03/20 09:48:49;;;;;;;1.15;0.40;;;16.50;96.70;;;;;;5064407;28;20402;-71
2023/03/20 09:51:30;;;;;;;1.98;0.40;;;16.60;96.70;;;;;;5089878;28;20395;-72
2023/03/20 09:54:06;;;;;;;1.55;0.40;;;16.80;96.70;;;;;;5074107;28;20047;-72
2023/03/20 09:56:35;;;;;;;0.30;0.20;;;16.80;96.70;;;;;;5080893;28;20559;-72
2023/03/20 09:59:05;;;;;;;0.60;0.10;;;16.70;96.70;;;;;;5082182;28;20051;-72
2023/03/20 10:01:43;;;;;;;0.80;0.40;;;16.90;96.70;;;;;;5082739;28;20042;-71
2023/03/20 10:04:11;;;;;;;0.30;0.20;;;17.10;96.70;;;;;;5080139;28;20043;-72
2023/03/20 10:06:40;;;;;;;4.03;0.60;;;17.40;96.70;;;;;;5087410;28;20093;-72
2023/03/20 10:09:16;;;;;;;0.30;0.20;;;17.60;96.70;;;;;;5079948;28;20062;-71
2023/03/20 10:12:08;;;;;;;0.77;0.22;;;17.70;96.70;;;;;;5083027;28;20047;-71
2023/03/20 10:14:46;;;;;;;2.95;0.43;;;17.70;96.70;;;;;;5075948;28;20079;-71
2023/03/20 10:17:25;;;;;;;0.77;0.38;;;17.70;96.70;;;;;;5096770;28;20064;-72
2023/03/20 10:19:58;;;;;;;0.93;0.20;;;17.80;96.70;;;;;;5091340;28;20059;-72
2023/03/20 10:22:31;;;;;;;0.47;0.40;;;17.90;96.70;;;;;;5099585;28;20071;-71
2023/03/20 10:25:07;;;;;;;2.05;0.43;;;17.90;96.70;;;;;;5090635;28;20071;-71
2023/03/20 10:27:42;;;;;;;0.68;0.30;;;17.80;96.70;;;;;;5080682;28;20044;-72
2023/03/20 10:30:35;;;;;;;1.08;0.30;;;17.80;96.70;;;;;;5085876;28;20513;-71
2023/03/20 10:33:20;;;;;;;0.35;0.25;;;17.90;96.70;;;;;;5078695;28;20066;-70
2023/03/20 10:35:56;;;;;;;0.40;0.20;;;17.90;96.70;;;;;;5085363;28;20044;-72
2023/03/20 10:38:34;;;;;;;0.20;0.10;;;17.90;96.70;;;;;;5082021;28;20056;-71
2023/03/20 10:41:09;;;;;;;0.60;0.30;;;18.10;96.70;;;;;;5083372;28;20059;-72
2023/03/20 10:43:39;;;;;;;0.10;0.10;;;18.30;96.70;;;;;;5093532;28;20063;-72
2023/03/20 10:46:13;;;;;;;1.20;0.20;;;18.40;96.70;;;;;;5076562;28;21249;-72
2023/03/20 10:48:45;;;;;;;0.40;0.30;;;18.40;96.70;;;;;;5093988;28;20557;-71
2023/03/20 10:51:16;;;;;;;1.45;0.40;;;18.30;96.70;;;;;;5083893;28;20032;-71
2023/03/20 10:53:46;;;;;;;1.05;0.30;;;18.10;96.70;;;;;;5081481;28;20048;-71
2023/03/20 10:56:21;;;;;;;0.40;0.20;;;18.10;96.70;;;;;;5085800;28;20043;-72
2023/03/20 10:58:57;;;;;;;0.30;0.20;;;18.20;96.70;;;;;;5088406;28;20132;-71
2023/03/20 11:01:25;;;;;;;0.63;0.40;;;18.20;96.70;;;;;;5083549;28;20054;-72
2023/03/20 11:03:54;;;;;;;0.57;0.30;;;18.30;96.70;;;;;;5083110;28;20505;-72
2023/03/20 11:06:27;;;;;;;0.32;0.20;;;18.40;96.70;;;;;;5087691;28;20055;-72
2023/03/20 11:08:55;;;;;;;0.30;0.20;;;18.70;96.70;;;;;;5086337;28;20114;-72
2023/03/20 11:11:26;;;;;;;0.22;0.17;;;19.10;96.70;;;;;;5089111;28;20044;-72
2023/03/20 11:13:55;;;;;;;0.50;0.22;;;19.10;96.70;;;;;;5084087;28;20052;-72
2023/03/20 11:16:25;;;;;;;1.30;0.20;;;19.20;96.70;;;;;;5083724;28;20044;-72
2023/03/20 11:18:53;;;;;;;0.75;0.22;;;19.10;96.70;;;;;;5101429;28;20424;-72
2023/03/20 11:21:24;;;;;;;0.77;0.43;;;19.20;96.70;;;;;;5086787;28;20040;-72
2023/03/20 11:23:53;;;;;;;0.30;0.17;;;19.30;96.70;;;;;;5102284;28;20073;-71
2023/03/20 11:26:34;;;;;;;1.70;0.30;;;19.50;96.70;;;;;;5072280;28;20048;-72
2023/03/20 11:29:06;;;;;;;0.88;0.30;;;19.70;96.70;;;;;;5084526;28;20063;-72
2023/03/20 11:31:35;;;;;;;0.40;0.20;;;20.00;96.70;;;;;;5066955;28;20048;-72
2023/03/20 11:34:21;;;;;;;1.65;0.20;;;19.90;96.70;;;;;;5083968;28;20519;-72
2023/03/20 11:36:57;;;;;;;0.65;0.38;;;19.70;96.70;;;;;;5094282;28;20050;-72
2023/03/20 11:39:39;;;;;;;0.50;0.20;;;19.50;96.70;;;;;;5068100;28;20832;-72
2023/03/20 11:42:23;;;;;;;0.50;0.20;;;19.70;96.70;;;;;;5099538;28;20545;-72
2023/03/20 11:44:57;;;;;;;0.40;0.25;;;20.00;96.70;;;;;;5091638;28;20047;-72
2023/03/20 11:47:28;;;;;;;0.20;0.10;;;20.00;96.70;;;;;;5084987;28;20040;-72
2023/03/20 11:49:58;;;;;;;0.80;0.30;;;20.20;96.70;;;;;;5082917;28;20151;-72
2023/03/20 11:52:29;;;;;;;0.30;0.20;;;20.20;96.70;;;;;;5089480;28;20503;-72
2023/03/20 11:54:59;;;;;;;0.40;0.22;;;20.20;96.70;;;;;;5092996;28;20071;-72
2023/03/20 11:57:37;;;;;;;0.45;0.30;;;20.20;96.70;;;;;;5097301;28;20039;-72
2023/03/20 12:00:17;;;;;;;0.73;0.30;;;20.20;96.70;;;;;;5089276;28;20058;-72
2023/03/20 12:02:45;;;;;;;0.65;0.35;;;20.40;96.70;;;;;;5082808;28;20054;-72
2023/03/20 12:05:29;;;;;;;0.65;0.35;;;20.50;96.70;;;;;;5074674;28;20506;-72
2023/03/20 12:08:03;;;;;;;1.98;0.40;;;20.60;96.70;;;;;;5087537;28;20448;-72
2023/03/20 12:10:38;;;;;;;0.80;0.40;;;20.40;96.70;;;;;;5086379;28;20077;-72
2023/03/20 12:13:13;;;;;;;0.40;0.28;;;20.50;96.70;;;;;;5099538;28;20048;-71
2023/03/20 12:15:45;;;;;;;0.95;0.40;;;20.60;96.70;;;;;;5099470;28;21339;-72
2023/03/20 12:18:21;;;;;;;0.57;0.30;;;20.60;96.70;;;;;;5093302;28;20048;-72
2023/03/20 12:21:01;;;;;;;0.50;0.40;;;20.80;96.70;;;;;;5074462;28;20072;-73
2023/03/20 12:23:33;;;;;;;1.05;0.40;;;21.10;96.70;;;;;;5084116;28;20101;-72
2023/03/20 12:26:06;;;;;;;1.40;0.40;;;21.30;96.70;;;;;;5087663;28;20044;-72
2023/03/20 12:28:42;;;;;;;0.77;0.50;;;21.40;96.70;;;;;;5087064;28;20051;-72
2023/03/20 12:31:22;;;;;;;0.53;0.40;;;21.40;96.70;;;;;;5092058;28;20719;-71
2023/03/20 12:33:56;;;;;;;0.70;0.30;;;21.70;96.70;;;;;;5101469;28;20133;-72
2023/03/20 12:36:30;;;;;;;1.10;0.40;;;21.50;96.70;;;;;;5087797;28;20571;-73
2023/03/20 12:38:58;;;;;;;0.70;0.47;;;21.70;96.70;;;;;;5093027;28;20043;-75
2023/03/20 12:41:29;;;;;;;0.70;0.28;;;21.50;96.70;;;;;;5084590;28;20638;-71
2023/03/20 12:44:24;;;;;;;3.90;0.70;;;21.50;96.70;;;;;;5090584;28;20036;-72
2023/03/20 12:47:00;;;;;;;1.88;0.40;;;21.20;96.70;;;;;;5081653;28;20072;-72
2023/03/20 12:49:36;;;;;;;;;;;21.00;96.70;;;;;;5082299;28;20143;-72
2023/03/20 12:52:14;;;;;;;1.23;0.57;;;21.00;96.70;;;;;;5102084;28;20031;-72
2023/03/20 12:55:02;;;;;;;1.15;0.47;;;21.20;96.70;;;;;;5093718;28;20608;-72
2023/03/20 12:57:36;;;;;;;0.77;0.38;;;21.00;96.70;;;;;;5093459;28;20048;-72
2023/03/20 13:00:23;;;;;;;0.63;0.30;;;21.20;96.70;;;;;;5075191;28;20152;-73
2023/03/20 13:03:03;;;;;;;0.40;0.20;;;21.30;96.70;;;;;;5094516;28;20101;-72
2023/03/20 13:05:41;;;;;;;2.05;0.52;;;21.00;96.70;;;;;;5092407;28;20447;-72
2023/03/20 13:08:32;;;;;;;0.52;0.38;;;20.60;96.70;;;;;;5074697;28;20052;-72
2023/03/20 13:11:09;;;;;;;1.05;0.50;;;20.20;96.70;;;;;;5089903;28;20049;-72
2023/03/20 13:13:45;;;;;;;0.50;0.20;;;19.90;96.70;;;;;;5089999;28;20047;-73
2023/03/20 13:16:25;;;;;;;0.30;0.30;;;19.70;96.70;;;;;;5087290;28;20044;-72
2023/03/20 13:19:01;;;;;;;0.63;0.32;;;19.80;96.70;;;;;;5097111;28;20044;-72
2023/03/20 13:21:38;;;;;;;0.88;0.30;;;20.20;96.70;;;;;;5084121;28;20135;-73
2023/03/20 13:24:18;;;;;;;1.63;0.20;;;20.80;96.70;;;;;;5089771;28;20302;-73